createdAt,value
2018-08-23T03:01:03.927Z,4.40
2018-08-23T03:02:04.236Z,6.90
2018-08-23T03:03:04.848Z,7.30
2018-08-23T03:04:05.678Z,7.20
2018-08-23T03:05:04.471Z,6.50
2018-08-23T03:06:05.447Z,7.50
2018-08-23T03:07:06.891Z,7.00
2018-08-23T03:08:05.402Z,7.00
2018-08-23T03:09:07.259Z,7.20
2018-08-23T03:10:06.150Z,7.30
2018-08-23T03:11:04.958Z,6.90
2018-08-23T03:12:03.932Z,7.10
2018-08-23T03:13:04.014Z,6.50
2018-08-23T03:14:04.084Z,7.50
2018-08-23T03:15:04.444Z,6.80
2018-08-23T03:16:04.541Z,7.20
2018-08-23T03:17:04.680Z,7.70
2018-08-23T03:18:04.901Z,7.50
2018-08-23T03:19:04.928Z,7.30
2018-08-23T03:20:05.139Z,7.20
2018-08-23T03:21:05.469Z,7.20
2018-08-23T03:22:05.610Z,7.00
2018-08-23T03:23:05.818Z,7.30
2018-08-23T03:24:05.862Z,7.10
2018-08-23T03:25:06.278Z,7.40
2018-08-23T03:26:06.363Z,7.40
2018-08-23T03:27:06.641Z,7.50
2018-08-23T03:28:06.786Z,8.20
2018-08-23T03:29:06.929Z,7.80
2018-08-23T03:30:07.048Z,6.80
2018-08-23T03:31:07.307Z,7.10
2018-08-23T03:32:08.023Z,7.90
2018-08-23T03:33:07.472Z,7.10
2018-08-23T03:34:07.682Z,7.30
2018-08-23T03:35:07.876Z,7.50
2018-08-23T03:36:08.030Z,7.10
2018-08-23T03:37:08.304Z,7.50
2018-08-23T03:38:08.552Z,7.50
2018-08-23T03:39:08.658Z,7.20
2018-08-23T03:40:08.708Z,7.80
2018-08-23T03:41:09.092Z,7.00
2018-08-23T03:42:09.158Z,7.70
2018-08-23T03:43:09.449Z,7.20
2018-08-23T03:44:09.550Z,8.00
2018-08-23T03:45:09.794Z,7.30
2018-08-23T03:46:09.883Z,7.20
2018-08-23T03:47:10.018Z,7.30
2018-08-23T03:48:10.192Z,7.40
2018-08-23T03:49:10.505Z,7.30
2018-08-23T03:50:10.633Z,6.80
2018-08-23T03:51:10.870Z,7.40
2018-08-23T03:52:11.155Z,7.10
2018-08-23T03:53:11.258Z,7.30
2018-08-23T03:54:11.387Z,6.90
2018-08-23T03:55:11.743Z,7.80
2018-08-23T03:56:11.922Z,7.70
2018-08-23T03:57:11.919Z,7.40
2018-08-23T03:58:12.221Z,7.00
2018-08-23T03:59:12.282Z,7.30
2018-08-23T04:00:12.763Z,7.30
2018-08-23T04:01:13.045Z,7.30
2018-08-23T04:02:13.186Z,7.40
2018-08-23T04:03:13.300Z,7.70
2018-08-23T04:04:13.701Z,7.60
2018-08-23T04:05:13.687Z,7.80
2018-08-23T04:06:14.146Z,7.30
2018-08-23T04:07:14.012Z,7.50
2018-08-23T04:08:14.119Z,7.10
2018-08-23T04:09:14.333Z,7.60
2018-08-23T04:10:14.668Z,7.50
2018-08-23T04:11:14.917Z,7.70
2018-08-23T04:12:15.623Z,7.40
2018-08-23T04:13:15.089Z,7.60
2018-08-23T04:14:15.407Z,7.80
2018-08-23T04:15:15.619Z,8.00
2018-08-23T04:16:15.876Z,7.30
2018-08-23T04:17:16.007Z,8.00
2018-08-23T04:18:15.914Z,8.30
2018-08-23T04:19:16.128Z,8.20
2018-08-23T04:20:16.518Z,7.80
2018-08-23T04:21:16.824Z,7.50
2018-08-23T04:22:16.912Z,8.10
2018-08-23T04:23:16.961Z,7.70
2018-08-23T04:24:17.231Z,7.40
2018-08-23T04:25:17.377Z,7.90
2018-08-23T04:26:17.542Z,7.30
2018-08-23T04:27:17.844Z,7.40
2018-08-23T04:28:18.245Z,7.70
2018-08-23T04:29:18.277Z,7.70
2018-08-23T04:30:18.336Z,7.70
2018-08-23T04:31:18.686Z,8.00
2018-08-23T04:32:18.376Z,7.50
2018-08-23T04:33:18.491Z,8.20
2018-08-23T04:34:18.800Z,8.20
2018-08-23T04:35:19.112Z,8.10
2018-08-23T04:36:19.196Z,8.10
2018-08-23T04:37:19.615Z,8.00
2018-08-23T04:38:19.732Z,8.30
2018-08-23T04:39:19.753Z,8.10
2018-08-23T04:40:19.901Z,9.10
2018-08-23T04:41:20.025Z,8.60
2018-08-23T04:42:20.311Z,7.90
2018-08-23T04:43:20.488Z,8.40
2018-08-23T04:44:20.763Z,7.80
2018-08-23T04:45:20.808Z,8.10
2018-08-23T04:46:20.956Z,9.00
2018-08-23T04:47:21.321Z,8.60
2018-08-23T04:48:21.328Z,8.90
2018-08-23T04:49:21.576Z,8.80
2018-08-23T04:50:21.739Z,8.70
2018-08-23T04:51:22.036Z,8.10
2018-08-23T04:52:22.002Z,8.30
2018-08-23T04:53:22.426Z,8.50
2018-08-23T04:54:22.826Z,8.20
2018-08-23T04:55:22.879Z,8.40
2018-08-23T04:56:22.969Z,8.60
2018-08-23T04:57:23.273Z,8.40
2018-08-23T04:58:23.341Z,8.50
2018-08-23T04:59:23.536Z,8.20
2018-08-23T05:00:23.663Z,8.60
2018-08-23T05:01:23.956Z,8.10
2018-08-23T05:02:23.952Z,8.70
2018-08-23T05:03:24.354Z,8.30
2018-08-23T05:04:24.304Z,8.30
2018-08-23T05:05:24.569Z,8.70
2018-08-23T05:06:24.593Z,8.50
2018-08-23T05:07:25.087Z,8.60
2018-08-23T05:08:25.314Z,9.00
2018-08-23T05:09:25.257Z,8.90
2018-08-23T05:10:25.390Z,9.10
2018-08-23T05:11:25.609Z,8.70
2018-08-23T05:12:25.721Z,8.50
2018-08-23T05:13:25.903Z,8.70
2018-08-23T05:14:26.537Z,8.40
2018-08-23T05:15:26.363Z,8.60
2018-08-23T05:16:26.585Z,8.20
2018-08-23T05:17:26.633Z,8.60
2018-08-23T05:18:26.780Z,8.30
2018-08-23T05:19:27.019Z,9.10
2018-08-23T05:20:27.202Z,8.80
2018-08-23T05:21:27.252Z,8.90
2018-08-23T05:22:28.058Z,9.30
2018-08-23T05:23:27.854Z,8.70
2018-08-23T05:24:28.003Z,9.00
2018-08-23T05:25:28.066Z,8.90
2018-08-23T05:26:28.192Z,9.50
2018-08-23T05:27:28.502Z,8.60
2018-08-23T05:28:28.724Z,8.60
2018-08-23T05:29:28.807Z,9.10
2018-08-23T05:30:29.135Z,8.70
2018-08-23T05:31:29.269Z,8.70
2018-08-23T05:32:29.406Z,9.30
2018-08-23T05:33:29.557Z,9.10
2018-08-23T05:34:30.079Z,9.50
2018-08-23T05:35:30.136Z,9.30
2018-08-23T05:36:30.200Z,8.50
2018-08-23T05:37:30.456Z,8.70
2018-08-23T05:38:30.677Z,9.30
2018-08-23T05:39:30.635Z,9.40
2018-08-23T05:40:30.997Z,9.20
2018-08-23T05:41:31.295Z,8.60
2018-08-23T05:42:31.240Z,9.20
2018-08-23T05:43:31.483Z,8.80
2018-08-23T05:44:31.654Z,9.10
2018-08-23T05:45:31.787Z,9.20
2018-08-23T05:46:31.900Z,8.80
2018-08-23T05:47:32.269Z,9.00
2018-08-23T05:48:32.359Z,8.60
2018-08-23T05:49:32.651Z,8.70
2018-08-23T05:50:32.647Z,8.80
2018-08-23T05:51:32.864Z,9.20
2018-08-23T05:52:33.182Z,9.10
2018-08-23T05:53:33.089Z,8.10
2018-08-23T05:54:33.274Z,8.30
2018-08-23T05:55:33.676Z,8.60
2018-08-23T05:56:33.722Z,8.90
2018-08-23T05:57:33.995Z,8.60
2018-08-23T05:58:34.233Z,8.50
2018-08-23T05:59:34.502Z,8.70
2018-08-23T06:00:34.553Z,8.60
2018-08-23T06:01:34.777Z,8.90
2018-08-23T06:02:35.069Z,8.80
2018-08-23T06:03:35.055Z,8.60
2018-08-23T06:04:35.313Z,10.00
2018-08-23T06:05:35.451Z,10.20
2018-08-23T06:06:35.727Z,9.70
2018-08-23T06:07:35.724Z,9.30
2018-08-23T06:08:35.910Z,9.30
2018-08-23T06:09:36.202Z,9.10
2018-08-23T06:10:36.295Z,9.20
2018-08-23T06:11:36.690Z,9.00
2018-08-23T06:12:36.837Z,9.90
2018-08-23T06:13:37.154Z,9.00
2018-08-23T06:14:37.215Z,8.80
2018-08-23T06:15:37.259Z,8.60
2018-08-23T06:16:37.497Z,9.10
2018-08-23T06:17:37.734Z,8.70
2018-08-23T06:18:37.908Z,8.70
2018-08-23T06:19:38.059Z,9.30
2018-08-23T06:20:38.241Z,9.20
2018-08-23T06:21:38.265Z,9.20
2018-08-23T06:22:38.548Z,9.10
2018-08-23T06:23:38.527Z,9.90
2018-08-23T06:24:38.965Z,9.80
2018-08-23T06:25:39.189Z,10.00
2018-08-23T06:26:39.278Z,10.00
2018-08-23T06:27:39.420Z,10.20
2018-08-23T06:28:39.553Z,10.20
2018-08-23T06:29:39.959Z,10.30
2018-08-23T06:30:40.032Z,10.00
2018-08-23T06:31:40.225Z,10.30
2018-08-23T06:32:40.320Z,10.80
2018-08-23T06:33:40.487Z,10.00
2018-08-23T06:34:40.712Z,10.10
2018-08-23T06:35:41.082Z,10.10
2018-08-23T06:36:41.017Z,10.00
2018-08-23T06:37:41.127Z,10.20
2018-08-23T06:38:41.434Z,9.90
2018-08-23T06:39:41.839Z,9.80
2018-08-23T06:40:41.848Z,10.00
2018-08-23T06:41:41.948Z,10.00
2018-08-23T06:42:41.944Z,9.40
2018-08-23T06:43:42.401Z,10.30
2018-08-23T06:44:42.505Z,10.00
2018-08-23T06:45:42.787Z,9.90
2018-08-23T06:46:42.903Z,9.80
2018-08-23T06:47:43.062Z,11.00
2018-08-23T06:48:43.120Z,9.90
2018-08-23T06:49:43.936Z,9.70
2018-08-23T06:50:43.487Z,11.90
2018-08-23T06:51:43.524Z,9.80
2018-08-23T06:52:43.697Z,9.50
2018-08-23T06:53:44.102Z,9.40
2018-08-23T06:54:44.267Z,10.60
2018-08-23T06:55:44.779Z,9.80
2018-08-23T06:56:44.738Z,11.70
2018-08-23T06:57:44.598Z,11.20
2018-08-23T06:58:44.865Z,10.70
2018-08-23T07:00:45.193Z,10.80
2018-08-23T07:01:45.457Z,10.10
2018-08-23T07:02:45.649Z,10.60
2018-08-23T07:03:45.789Z,10.10
2018-08-23T07:04:45.706Z,10.70
2018-08-23T07:05:47.367Z,12.20
2018-08-23T07:06:46.416Z,10.00
2018-08-23T07:07:46.369Z,10.70
2018-08-23T07:08:46.588Z,10.60
2018-08-23T07:09:46.981Z,10.00
2018-08-23T07:10:46.850Z,11.50
2018-08-23T07:11:47.343Z,10.70
2018-08-23T07:12:47.801Z,11.40
2018-08-23T07:13:47.540Z,11.50
2018-08-23T07:14:47.663Z,11.00
2018-08-23T07:15:47.681Z,10.70
2018-08-23T07:16:48.112Z,17.70
2018-08-23T07:17:48.327Z,24.50
2018-08-23T07:18:48.350Z,24.50
2018-08-23T07:19:48.721Z,18.30
2018-08-23T07:20:48.860Z,25.00
2018-08-23T07:21:49.148Z,21.70
2018-08-23T07:22:49.198Z,12.50
2018-08-23T07:23:49.389Z,11.60
2018-08-23T07:24:49.619Z,12.90
2018-08-23T07:25:49.665Z,17.70
2018-08-23T07:26:50.028Z,14.90
2018-08-23T07:27:50.132Z,12.40
2018-08-23T07:28:50.431Z,10.10
2018-08-23T07:29:50.487Z,9.40
2018-08-23T07:30:50.508Z,9.40
2018-08-23T07:31:50.704Z,10.10
2018-08-23T07:32:51.136Z,11.80
2018-08-23T07:33:52.985Z,10.00
2018-08-23T07:34:52.716Z,10.20
2018-08-23T07:35:51.530Z,10.40
2018-08-23T07:36:51.608Z,11.30
2018-08-23T07:37:51.628Z,11.30
2018-08-23T07:38:52.477Z,12.00
2018-08-23T07:39:52.816Z,11.80
2018-08-23T07:40:53.553Z,10.40
2018-08-23T07:41:53.008Z,10.80
2018-08-23T07:42:52.810Z,10.70
2018-08-23T07:43:53.156Z,11.50
2018-08-23T07:44:53.405Z,12.90
2018-08-23T07:46:53.340Z,12.20
2018-08-23T07:48:54.487Z,9.50
2018-08-23T07:52:41.902Z,10.40
2018-08-23T07:53:49.617Z,10.40
2018-08-23T07:57:26.370Z,12.30
2018-08-23T07:58:21.588Z,9.80
2018-08-23T08:00:43.591Z,10.00
2018-08-23T08:15:42.446Z,9.70
2018-08-23T08:17:46.798Z,9.80
2018-08-23T08:18:53.887Z,9.10
2018-08-23T08:20:23.090Z,10.30
2018-08-23T08:22:29.515Z,8.90
2018-08-23T08:22:52.475Z,8.40
2018-08-23T08:24:45.111Z,7.80
2018-08-23T08:25:40.012Z,7.90
2018-08-23T08:26:36.975Z,8.40
2018-08-23T08:27:37.827Z,9.80
2018-08-23T08:28:37.157Z,8.90
2018-08-23T08:29:37.448Z,9.90
2018-08-23T08:30:37.412Z,8.10
2018-08-23T08:31:37.883Z,9.90
2018-08-23T08:32:38.156Z,10.40
2018-08-23T08:33:38.059Z,10.00
2018-08-23T08:34:39.040Z,10.80
2018-08-23T08:35:38.897Z,9.30
2018-08-23T08:36:38.459Z,9.90
2018-08-23T08:37:38.770Z,8.10
2018-08-23T08:38:38.779Z,11.80
2018-08-23T08:39:40.006Z,7.90
2018-08-23T08:40:39.188Z,9.40
2018-08-23T08:41:39.312Z,9.20
2018-08-23T08:42:39.627Z,7.40
2018-08-23T08:43:39.741Z,10.20
2018-08-23T08:44:40.027Z,8.50
2018-08-23T08:45:40.234Z,9.10
2018-08-23T08:46:40.304Z,7.90
2018-08-23T08:47:40.558Z,7.80
2018-08-23T08:48:40.803Z,8.50
2018-08-23T08:49:40.910Z,7.20
2018-08-23T08:50:41.117Z,7.40
2018-08-23T08:51:41.330Z,8.60
2018-08-23T08:52:41.384Z,7.80
2018-08-23T08:53:41.571Z,8.20
2018-08-23T08:54:41.870Z,8.80
2018-08-23T08:55:41.892Z,8.00
2018-08-23T08:56:42.165Z,9.00
2018-08-23T08:57:42.444Z,13.50
2018-08-23T08:58:42.344Z,7.40
2018-08-23T08:59:42.616Z,7.90
2018-08-23T09:00:42.926Z,8.50
2018-08-23T09:01:43.055Z,7.90
2018-08-23T09:02:43.154Z,8.20
2018-08-23T09:03:43.572Z,7.80
2018-08-23T09:04:43.536Z,8.60
2018-08-23T09:05:44.644Z,7.90
2018-08-23T09:06:44.045Z,7.10
2018-08-23T09:07:44.256Z,8.80
2018-08-23T09:08:44.296Z,7.00
2018-08-23T09:09:44.418Z,9.40
2018-08-23T09:10:44.785Z,7.90
2018-08-23T09:11:44.891Z,7.40
2018-08-23T09:13:45.403Z,7.40
2018-08-23T09:14:45.550Z,7.30
2018-08-23T09:15:45.534Z,7.50
2018-08-23T09:16:45.896Z,7.20
2018-08-23T09:17:46.150Z,7.50
2018-08-23T09:18:46.183Z,8.50
2018-08-23T09:19:46.376Z,7.10
2018-08-23T09:20:46.709Z,7.50
2018-08-23T09:21:46.688Z,6.90
2018-08-23T09:22:46.846Z,6.40
2018-08-23T09:23:47.014Z,9.10
2018-08-23T09:24:47.292Z,8.40
2018-08-23T09:25:47.283Z,6.20
2018-08-23T09:26:47.585Z,6.50
2018-08-23T09:27:47.763Z,9.00
2018-08-23T09:28:48.020Z,5.80
2018-08-23T09:29:48.279Z,6.30
2018-08-23T09:30:48.439Z,6.60
2018-08-23T09:31:48.414Z,6.30
2018-08-23T09:32:48.678Z,8.90
2018-08-23T09:33:48.872Z,8.30
2018-08-23T09:34:49.140Z,11.90
2018-08-23T09:35:49.161Z,7.20
2018-08-23T09:36:49.383Z,8.00
2018-08-23T09:37:49.870Z,8.40
2018-08-23T09:38:49.889Z,6.00
2018-08-23T09:39:50.169Z,8.40
2018-08-23T09:40:50.351Z,6.10
2018-08-23T09:41:50.579Z,5.60
2018-08-23T09:42:50.731Z,8.80
2018-08-23T09:43:51.493Z,5.30
2018-08-23T09:44:50.875Z,6.80
2018-08-23T09:45:51.130Z,6.00
2018-08-23T09:46:51.395Z,5.50
2018-08-23T09:47:51.489Z,5.60
2018-08-23T09:48:51.714Z,6.20
2018-08-23T09:49:52.035Z,6.20
2018-08-23T09:50:52.288Z,6.40
2018-08-23T09:51:52.298Z,6.90
2018-08-23T09:52:52.350Z,7.20
2018-08-23T09:53:52.640Z,10.90
2018-08-23T09:54:52.914Z,6.20
2018-08-23T09:55:53.085Z,5.70
2018-08-23T09:56:53.232Z,5.40
2018-08-23T09:57:53.358Z,5.70
2018-08-23T09:58:53.534Z,6.00
2018-08-23T09:59:53.843Z,6.00
2018-08-23T10:00:54.174Z,7.80
2018-08-23T10:01:54.098Z,6.40
2018-08-23T10:02:54.666Z,6.20
2018-08-23T10:03:54.330Z,6.10
2018-08-23T10:04:54.689Z,7.40
2018-08-23T10:05:54.969Z,8.10
2018-08-23T10:07:55.247Z,5.90
2018-08-23T10:08:55.492Z,7.20
2018-08-23T10:09:55.568Z,6.50
2018-08-23T10:10:55.903Z,6.90
2018-08-23T10:11:55.930Z,6.20
2018-08-23T10:12:56.108Z,6.00
2018-08-23T10:13:56.299Z,5.40
2018-08-23T10:14:56.440Z,5.70
2018-08-23T10:15:56.766Z,4.60
2018-08-23T10:16:56.891Z,5.10
2018-08-23T10:17:57.128Z,4.40
2018-08-23T10:18:57.233Z,5.00
2018-08-23T10:19:57.506Z,5.90
2018-08-23T10:20:57.579Z,6.60
2018-08-23T10:21:58.094Z,4.80
2018-08-23T10:22:58.070Z,6.20
2018-08-23T10:23:58.374Z,5.80
2018-08-23T10:24:58.501Z,5.60
2018-08-23T10:25:58.641Z,4.60
2018-08-23T10:26:59.044Z,4.80
2018-08-23T10:27:59.141Z,4.40
2018-08-23T10:28:59.275Z,4.90
2018-08-23T10:29:59.812Z,4.40
2018-08-23T10:30:59.558Z,6.20
2018-08-23T10:31:59.830Z,4.60
2018-08-23T10:32:59.964Z,4.40
2018-08-23T10:33:59.932Z,5.10
2018-08-23T10:35:00.215Z,4.30
2018-08-23T10:36:00.701Z,4.00
2018-08-23T10:37:00.634Z,4.50
2018-08-23T10:38:00.930Z,5.30
2018-08-23T10:39:00.972Z,4.00
2018-08-23T10:40:01.158Z,4.00
2018-08-23T10:41:01.308Z,4.30
2018-08-23T10:42:01.573Z,4.60
2018-08-23T10:43:01.878Z,5.00
2018-08-23T10:44:01.845Z,4.50
2018-08-23T10:45:02.031Z,6.60
2018-08-23T10:46:02.249Z,4.80
2018-08-23T10:47:02.570Z,5.20
2018-08-23T10:48:02.581Z,4.00
2018-08-23T10:49:02.763Z,4.40
2018-08-23T10:50:02.982Z,5.70
2018-08-23T10:51:03.157Z,4.00
2018-08-23T10:52:03.297Z,3.60
2018-08-23T10:53:03.464Z,3.50
2018-08-23T10:54:03.713Z,4.30
2018-08-23T10:55:04.001Z,5.20
2018-08-23T10:56:04.201Z,4.80
2018-08-23T10:57:04.306Z,4.20
2018-08-23T10:58:04.666Z,3.50
2018-08-23T10:59:04.851Z,5.60
2018-08-23T11:00:04.966Z,4.90
2018-08-23T11:01:04.999Z,4.10
2018-08-23T11:02:05.280Z,3.80
2018-08-23T11:03:05.366Z,4.30
2018-08-23T11:04:05.633Z,4.20
2018-08-23T11:05:06.001Z,4.10
2018-08-23T11:06:06.068Z,4.20
2018-08-23T11:07:06.112Z,4.00
2018-08-23T11:08:06.502Z,3.80
2018-08-23T11:09:06.698Z,4.10
2018-08-23T11:10:07.061Z,5.40
2018-08-23T11:11:07.057Z,4.40
2018-08-23T11:12:07.510Z,4.00
2018-08-23T11:13:07.618Z,4.70
2018-08-23T11:14:07.914Z,3.70
2018-08-23T11:15:07.778Z,4.10
2018-08-23T11:16:07.982Z,4.50
2018-08-23T11:17:08.133Z,4.00
2018-08-23T11:18:08.261Z,5.10
2018-08-23T11:19:08.440Z,4.50
2018-08-23T11:20:08.684Z,4.00
2018-08-23T11:21:08.936Z,4.30
2018-08-23T11:22:08.920Z,4.20
2018-08-23T11:23:09.460Z,4.90
2018-08-23T11:24:09.372Z,4.10
2018-08-23T11:25:09.444Z,4.90
2018-08-23T11:26:09.675Z,4.80
2018-08-23T11:27:09.907Z,6.00
2018-08-23T11:28:10.178Z,5.10
2018-08-23T11:29:10.405Z,3.90
2018-08-23T11:30:10.627Z,4.60
2018-08-23T11:31:10.832Z,5.30
2018-08-23T11:32:11.118Z,3.90
2018-08-23T11:33:11.046Z,5.50
2018-08-23T11:34:11.367Z,5.80
2018-08-23T11:35:11.586Z,5.60
2018-08-23T11:36:11.757Z,4.20
2018-08-23T11:37:11.903Z,5.50
2018-08-23T11:38:12.137Z,3.90
2018-08-23T11:39:12.421Z,4.40
2018-08-23T11:40:12.507Z,4.50
2018-08-23T11:41:12.920Z,4.30
2018-08-23T11:42:12.817Z,5.10
2018-08-23T11:43:12.914Z,5.70
2018-08-23T11:44:13.180Z,4.20
2018-08-23T11:45:13.329Z,5.20
2018-08-23T11:46:13.380Z,4.40
2018-08-23T11:47:13.655Z,3.70
2018-08-23T11:48:13.943Z,5.60
2018-08-23T11:49:14.150Z,3.60
2018-08-23T11:50:14.323Z,3.90
2018-08-23T11:51:14.400Z,4.80
2018-08-23T11:52:14.767Z,3.70
2018-08-23T11:53:14.903Z,3.90
2018-08-23T11:54:14.973Z,6.40
2018-08-23T11:55:15.298Z,3.60
2018-08-23T11:56:15.464Z,4.50
2018-08-23T11:57:15.627Z,4.00
2018-08-23T11:58:15.781Z,4.10
2018-08-23T11:59:16.212Z,4.00
2018-08-23T12:00:16.352Z,3.90
2018-08-23T12:01:16.416Z,5.10
2018-08-23T12:02:16.632Z,6.20
2018-08-23T12:03:17.035Z,4.30
2018-08-23T12:04:17.190Z,4.70
2018-08-23T12:05:17.378Z,3.90
2018-08-23T12:06:17.460Z,4.60
2018-08-23T12:07:17.775Z,3.60
2018-08-23T12:08:17.915Z,3.80
2018-08-23T12:09:18.114Z,3.50
2018-08-23T12:10:18.322Z,3.50
2018-08-23T12:11:18.440Z,3.40
2018-08-23T12:12:18.496Z,3.70
2018-08-23T12:13:18.852Z,3.90
2018-08-23T12:14:18.922Z,4.20
2018-08-23T12:15:19.132Z,3.90
2018-08-23T12:16:19.438Z,3.60
2018-08-23T12:17:19.706Z,4.10
2018-08-23T12:18:19.668Z,4.00
2018-08-23T12:19:19.872Z,4.10
2018-08-23T12:20:20.091Z,4.60
2018-08-23T12:21:20.252Z,4.10
2018-08-23T12:22:20.547Z,5.00
2018-08-23T12:23:20.673Z,4.40
2018-08-23T12:24:20.864Z,5.10
2018-08-23T12:25:20.999Z,4.90
2018-08-23T12:26:21.139Z,3.80
2018-08-23T12:27:21.403Z,4.90
2018-08-23T12:28:21.643Z,3.90
2018-08-23T12:29:21.733Z,4.40
2018-08-23T12:30:21.969Z,5.00
2018-08-23T12:31:22.086Z,4.20
2018-08-23T12:32:22.262Z,3.80
2018-08-23T12:33:22.469Z,3.90
2018-08-23T12:34:22.693Z,5.60
2018-08-23T12:35:22.808Z,4.90
2018-08-23T12:36:23.085Z,4.90
2018-08-23T12:37:23.268Z,5.40
2018-08-23T12:38:23.453Z,4.10
2018-08-23T12:39:23.728Z,5.40
2018-08-23T12:40:23.910Z,4.10
2018-08-23T12:41:24.100Z,5.10
2018-08-23T12:42:24.153Z,4.70
2018-08-23T12:43:24.299Z,3.80
2018-08-23T12:44:24.598Z,3.90
2018-08-23T12:45:24.863Z,4.70
2018-08-23T12:46:25.029Z,4.00
2018-08-23T12:47:25.118Z,3.90
2018-08-23T12:48:25.270Z,5.80
2018-08-23T12:49:25.812Z,4.90
2018-08-23T12:50:25.781Z,6.80
2018-08-23T12:51:25.968Z,4.70
2018-08-23T12:52:26.103Z,6.10
2018-08-23T12:53:26.294Z,4.50
2018-08-23T12:54:26.471Z,4.10
2018-08-23T12:55:26.735Z,4.40
2018-08-23T12:56:26.964Z,5.00
2018-08-23T12:57:27.064Z,5.40
2018-08-23T12:58:27.235Z,4.20
2018-08-23T12:59:27.465Z,4.90
2018-08-23T13:00:27.681Z,4.60
2018-08-23T13:01:28.007Z,5.00
2018-08-23T13:02:28.261Z,3.30
2018-08-23T13:03:28.335Z,3.90
2018-08-23T13:04:28.504Z,4.30
2018-08-23T13:05:28.817Z,4.80
2018-08-23T13:06:29.027Z,4.00
2018-08-23T13:07:29.097Z,4.00
2018-08-23T13:08:29.318Z,4.50
2018-08-23T13:09:29.401Z,3.60
2018-08-23T13:10:29.638Z,3.80
2018-08-23T13:11:29.793Z,3.80
2018-08-23T13:12:30.139Z,4.00
2018-08-23T13:13:30.230Z,5.20
2018-08-23T13:14:30.301Z,3.80
2018-08-23T13:15:30.624Z,4.10
2018-08-23T13:16:30.784Z,3.80
2018-08-23T13:17:31.023Z,3.80
2018-08-23T13:18:31.172Z,3.50
2018-08-23T13:19:31.308Z,3.70
2018-08-23T13:20:31.468Z,5.50
2018-08-23T13:21:31.741Z,4.50
2018-08-23T13:22:31.838Z,5.80
2018-08-23T13:23:32.039Z,3.90
2018-08-23T13:24:32.425Z,3.60
2018-08-23T13:25:32.463Z,4.50
2018-08-23T13:26:32.671Z,9.30
2018-08-23T13:27:32.890Z,4.40
2018-08-23T13:28:33.069Z,3.90
2018-08-23T13:29:33.323Z,5.00
2018-08-23T13:30:33.491Z,5.70
2018-08-23T13:31:33.680Z,4.00
2018-08-23T13:32:33.718Z,3.90
2018-08-23T13:33:33.928Z,5.70
2018-08-23T13:34:34.199Z,3.90
2018-08-23T13:35:34.485Z,4.00
2018-08-23T13:36:34.524Z,3.60
2018-08-23T13:37:34.657Z,4.60
2018-08-23T13:38:35.304Z,5.00
2018-08-23T13:39:35.035Z,4.00
2018-08-23T13:40:35.192Z,4.30
2018-08-23T13:41:35.359Z,3.80
2018-08-23T13:42:35.528Z,5.80
2018-08-23T13:43:35.875Z,6.00
2018-08-23T13:44:35.879Z,5.30
2018-08-23T13:45:36.114Z,4.60
2018-08-23T13:46:36.271Z,3.80
2018-08-23T13:47:36.463Z,3.60
2018-08-23T13:48:36.717Z,4.90
2018-08-23T13:49:36.805Z,3.90
2018-08-23T13:50:37.035Z,6.80
2018-08-23T13:51:37.206Z,4.20
2018-08-23T13:52:37.512Z,3.70
2018-08-23T13:53:37.659Z,4.90
2018-08-23T13:54:37.907Z,4.20
2018-08-23T13:55:38.000Z,4.70
2018-08-23T13:56:38.282Z,4.70
2018-08-23T13:57:38.494Z,4.10
2018-08-23T13:58:38.674Z,6.80
2018-08-23T13:59:38.837Z,4.50
2018-08-23T14:00:39.068Z,4.70
2018-08-23T14:01:39.247Z,4.20
2018-08-23T14:02:39.467Z,5.50
2018-08-23T14:03:39.571Z,6.50
2018-08-23T14:04:39.875Z,5.60
2018-08-23T14:05:40.109Z,3.80
2018-08-23T14:06:40.172Z,4.50
2018-08-23T14:07:40.325Z,4.00
2018-08-23T14:08:40.518Z,6.80
2018-08-23T14:09:40.724Z,4.10
2018-08-23T14:10:40.919Z,4.60
2018-08-23T14:11:41.109Z,3.90
2018-08-23T14:12:41.295Z,4.30
2018-08-23T14:13:41.460Z,5.30
2018-08-23T14:14:41.674Z,3.70
2018-08-23T14:15:41.786Z,4.30
2018-08-23T14:16:42.024Z,4.70
2018-08-23T14:17:42.177Z,6.40
2018-08-23T14:18:42.519Z,3.50
2018-08-23T14:19:42.700Z,3.90
2018-08-23T14:20:42.839Z,3.10
2018-08-23T14:21:42.971Z,4.10
2018-08-23T14:22:43.194Z,3.60
2018-08-23T14:23:43.324Z,3.60
2018-08-23T14:24:43.539Z,3.20
2018-08-23T14:25:43.808Z,3.80
2018-08-23T14:26:43.975Z,3.40
2018-08-23T14:27:44.169Z,3.40
2018-08-23T14:28:44.242Z,3.60
2018-08-23T14:29:44.475Z,3.60
2018-08-23T14:30:44.832Z,4.40
2018-08-23T14:31:44.897Z,4.70
2018-08-23T14:32:45.066Z,4.60
2018-08-23T14:33:45.232Z,3.70
2018-08-23T14:34:45.513Z,4.50
2018-08-23T14:35:45.647Z,4.20
2018-08-23T14:36:45.797Z,3.80
2018-08-23T14:37:45.977Z,4.50
2018-08-23T14:38:46.152Z,3.50
2018-08-23T14:39:46.391Z,4.80
2018-08-23T14:40:46.582Z,3.60
2018-08-23T14:41:46.847Z,3.30
2018-08-23T14:42:47.226Z,4.90
2018-08-23T14:43:47.101Z,4.80
2018-08-23T14:44:47.314Z,3.50
2018-08-23T14:45:47.536Z,4.80
2018-08-23T14:46:47.744Z,3.40
2018-08-23T14:47:47.848Z,3.40
2018-08-23T14:48:48.149Z,3.30
2018-08-23T14:49:48.314Z,3.50
2018-08-23T14:50:48.413Z,5.10
2018-08-23T14:51:48.780Z,3.40
2018-08-23T14:52:48.865Z,4.80
2018-08-23T14:53:49.086Z,5.40
2018-08-23T14:54:49.258Z,3.40
2018-08-23T14:55:49.404Z,3.40
2018-08-23T14:56:49.571Z,3.20
2018-08-23T14:57:49.823Z,3.60
2018-08-23T14:58:50.029Z,3.50
2018-08-23T14:59:50.275Z,3.40
2018-08-23T15:00:50.384Z,4.60
2018-08-23T15:01:50.633Z,4.20
2018-08-23T15:02:50.780Z,3.30
2018-08-23T15:03:50.857Z,3.30
2018-08-23T15:04:51.064Z,4.30
2018-08-23T15:05:51.361Z,4.00
2018-08-23T15:06:51.454Z,3.20
2018-08-23T15:07:51.777Z,3.20
2018-08-23T15:08:51.879Z,3.10
2018-08-23T15:09:52.194Z,3.00
2018-08-23T15:10:52.322Z,3.90
2018-08-23T15:11:52.473Z,4.50
2018-08-23T15:12:52.693Z,3.50
2018-08-23T15:13:52.838Z,4.30
2018-08-23T15:14:53.069Z,4.70
2018-08-23T15:15:53.125Z,3.60
2018-08-23T15:16:53.432Z,3.20
2018-08-23T15:17:54.313Z,3.60
2018-08-23T15:18:53.740Z,3.10
2018-08-23T15:19:54.032Z,2.90
2018-08-23T15:20:54.232Z,4.10
2018-08-23T15:21:54.922Z,3.30
2018-08-23T15:22:56.303Z,3.40
2018-08-23T15:23:54.661Z,3.20
2018-08-23T15:24:54.871Z,3.00
2018-08-23T15:25:55.136Z,4.00
2018-08-23T15:26:55.512Z,3.70
2018-08-23T15:27:55.495Z,2.80
2018-08-23T15:28:55.669Z,5.80
2018-08-23T15:29:55.975Z,3.10
2018-08-23T15:30:55.987Z,4.10
2018-08-23T15:31:56.379Z,2.90
2018-08-23T15:32:56.592Z,3.30
2018-08-23T15:33:56.661Z,3.00
2018-08-23T15:34:56.913Z,3.50
2018-08-23T15:35:57.003Z,3.00
2018-08-23T15:36:57.355Z,3.00
2018-08-23T15:37:57.419Z,4.30
2018-08-23T15:38:59.608Z,3.90
2018-08-23T15:39:57.784Z,3.30
2018-08-23T15:40:58.054Z,3.30
2018-08-23T15:41:58.270Z,3.00
2018-08-23T15:42:58.448Z,3.60
2018-08-23T15:43:58.626Z,3.80
2018-08-23T15:44:58.842Z,3.90
2018-08-23T15:45:59.043Z,3.10
2018-08-23T15:46:59.276Z,4.70
2018-08-23T15:47:59.431Z,3.10
2018-08-23T15:48:59.591Z,3.30
2018-08-23T15:49:59.885Z,2.80
2018-08-23T15:51:00.001Z,2.80
2018-08-23T15:52:00.181Z,3.00
2018-08-23T15:53:00.475Z,2.90
2018-08-23T15:54:00.565Z,3.80
2018-08-23T15:55:00.823Z,2.90
2018-08-23T15:56:00.935Z,2.80
2018-08-23T15:57:01.120Z,3.60
2018-08-23T15:58:01.353Z,3.00
2018-08-23T15:59:01.530Z,3.00
2018-08-23T16:00:01.709Z,2.90
2018-08-23T16:01:01.912Z,3.20
2018-08-23T16:02:02.120Z,3.00
2018-08-23T16:03:02.443Z,3.20
2018-08-23T16:04:02.504Z,3.10
2018-08-23T16:05:02.683Z,3.00
2018-08-23T16:06:02.878Z,3.50
2018-08-23T16:07:03.033Z,4.20
2018-08-23T16:08:03.353Z,3.30
2018-08-23T16:09:03.491Z,3.30
2018-08-23T16:10:03.642Z,3.50
2018-08-23T16:11:04.294Z,4.50
2018-08-23T16:12:03.903Z,4.00
2018-08-23T16:13:04.009Z,3.90
2018-08-23T16:14:04.345Z,3.60
2018-08-23T16:15:04.485Z,3.50
2018-08-23T16:16:04.753Z,4.10
2018-08-23T16:17:04.777Z,3.40
2018-08-23T16:18:04.944Z,5.50
2018-08-23T16:19:05.119Z,4.40
2018-08-23T16:20:05.353Z,5.40
2018-08-23T16:21:05.567Z,5.90
2018-08-23T16:22:05.701Z,3.80
2018-08-23T16:23:05.867Z,5.20
2018-08-23T16:24:06.000Z,4.40
2018-08-23T16:25:06.249Z,4.30
2018-08-23T16:26:06.544Z,4.30
2018-08-23T16:27:06.559Z,3.90
2018-08-23T16:28:06.753Z,4.50
2018-08-23T16:29:06.992Z,5.40
2018-08-23T16:30:07.210Z,3.70
2018-08-23T16:31:07.387Z,5.50
2018-08-23T16:32:07.548Z,4.00
2018-08-23T16:33:07.776Z,4.70
2018-08-23T16:34:07.895Z,6.20
2018-08-23T16:35:08.130Z,3.80
2018-08-23T16:36:08.332Z,4.50
2018-08-23T16:37:08.569Z,3.90
2018-08-23T16:38:08.544Z,3.70
2018-08-23T16:39:08.846Z,4.00
2018-08-23T16:40:08.919Z,6.20
2018-08-23T16:41:09.244Z,4.40
2018-08-23T16:42:09.426Z,5.00
2018-08-23T16:43:09.522Z,4.00
2018-08-23T16:44:09.728Z,4.60
2018-08-23T16:45:09.877Z,4.90
2018-08-23T16:46:10.110Z,4.10
2018-08-23T16:47:10.307Z,4.10